sensor_id;sensor_type;location;lat;lon;timestamp;pressure;altitude;pressure_sealevel;temperature;humidity
64298;BME280;50639;53.270;7.956;2023-05-10T00:01:55;100720.34;;;15.93;81.78
64298;BME280;50639;53.270;7.956;2023-05-10T00:04:20;100718.47;;;15.93;81.54
64298;BME280;50639;53.270;7.956;2023-05-10T00:06:46;100708.75;;;15.92;81.57
64298;BME280;50639;53.270;7.956;2023-05-10T00:09:12;100708.38;;;15.89;81.32
64298;BME280;50639;53.270;7.956;2023-05-10T00:11:37;100708.38;;;15.89;81.46
64298;BME280;50639;53.270;7.956;2023-05-10T00:14:03;100717.75;;;15.86;81.34
64298;BME280;50639;53.270;7.956;2023-05-10T00:16:28;100720.44;;;15.86;81.31
64298;BME280;50639;53.270;7.956;2023-05-10T00:18:54;100720.09;;;15.83;81.80
64298;BME280;50639;53.270;7.956;2023-05-10T00:21:21;100713.03;;;15.82;81.58
64298;BME280;50639;53.270;7.956;2023-05-10T00:23:46;100710.78;;;15.78;81.63
64298;BME280;50639;53.270;7.956;2023-05-10T00:26:12;100706.47;;;15.77;81.80
64298;BME280;50639;53.270;7.956;2023-05-10T00:28:38;100706.47;;;15.77;81.57
64298;BME280;50639;53.270;7.956;2023-05-10T00:31:04;100706.84;;;15.81;81.63
64298;BME280;50639;53.270;7.956;2023-05-10T00:33:30;100698.97;;;15.79;81.70
64298;BME280;50639;53.270;7.956;2023-05-10T00:35:56;100695.25;;;15.80;81.52
64298;BME280;50639;53.270;7.956;2023-05-10T00:38:21;100696.66;;;15.83;81.38
64298;BME280;50639;53.270;7.956;2023-05-10T00:40:47;100690.44;;;15.83;81.68
64298;BME280;50639;53.270;7.956;2023-05-10T00:43:20;100688.09;;;15.86;81.33
64298;BME280;50639;53.270;7.956;2023-05-10T00:45:46;100694.19;;;15.82;81.55
64298;BME280;50639;53.270;7.956;2023-05-10T00:48:12;100684.31;;;15.75;81.76
64298;BME280;50639;53.270;7.956;2023-05-10T00:50:39;100679.97;;;15.74;82.12
64298;BME280;50639;53.270;7.956;2023-05-10T00:53:05;100676.72;;;15.72;81.73
64298;BME280;50639;53.270;7.956;2023-05-10T00:55:31;100675.06;;;15.71;81.92
64298;BME280;50639;53.270;7.956;2023-05-10T00:57:57;100665.34;;;15.70;82.07
64298;BME280;50639;53.270;7.956;2023-05-10T01:00:23;100663.03;;;15.74;81.60
64298;BME280;50639;53.270;7.956;2023-05-10T01:02:48;100669.19;;;15.74;81.75
64298;BME280;50639;53.270;7.956;2023-05-10T01:05:14;100662.63;;;15.70;82.11
64298;BME280;50639;53.270;7.956;2023-05-10T01:07:40;100666.97;;;15.71;81.88
64298;BME280;50639;53.270;7.956;2023-05-10T01:10:09;100669.19;;;15.74;81.61
64298;BME280;50639;53.270;7.956;2023-05-10T01:12:37;100655.59;;;15.69;81.74
64298;BME280;50639;53.270;7.956;2023-05-10T01:15:05;100662.63;;;15.70;81.60
64298;BME280;50639;53.270;7.956;2023-05-10T01:17:31;100657.13;;;15.65;82.13
64298;BME280;50639;53.270;7.956;2023-05-10T01:19:57;100659.94;;;15.70;81.57
64298;BME280;50639;53.270;7.956;2023-05-10T01:25:31;100658.16;;;15.64;81.77
64298;BME280;50639;53.270;7.956;2023-05-10T01:33:59;100660.94;;;15.58;81.71
64298;BME280;50639;53.270;7.956;2023-05-10T01:36:46;100664.50;;;15.52;82.40
64298;BME280;50639;53.270;7.956;2023-05-10T01:39:32;100663.06;;;15.49;82.48
64298;BME280;50639;53.270;7.956;2023-05-10T01:42:07;100664.91;;;15.55;82.27
64298;BME280;50639;53.270;7.956;2023-05-10T01:44:46;100671.03;;;15.62;81.75
64298;BME280;50639;53.270;7.956;2023-05-10T01:47:50;100671.69;;;15.58;81.68
64298;BME280;50639;53.270;7.956;2023-05-10T01:50:12;100683.34;;;15.52;82.09
64298;BME280;50639;53.270;7.956;2023-05-10T01:52:42;100678.72;;;15.40;82.11
64298;BME280;50639;53.270;7.956;2023-05-10T01:55:14;100671.84;;;15.44;82.09
64298;BME280;50639;53.270;7.956;2023-05-10T01:57:43;100680.16;;;15.43;82.16
64298;BME280;50639;53.270;7.956;2023-05-10T02:00:10;100679.19;;;15.37;82.01
64298;BME280;50639;53.270;7.956;2023-05-10T02:02:45;100681.28;;;15.35;82.07
64298;BME280;50639;53.270;7.956;2023-05-10T02:05:12;100680.66;;;15.33;82.42
64298;BME280;50639;53.270;7.956;2023-05-10T02:07:38;100676.09;;;15.34;81.60
64298;BME280;50639;53.270;7.956;2023-05-10T02:10:06;100678.50;;;15.24;82.45
64298;BME280;50639;53.270;7.956;2023-05-10T02:12:39;100679.78;;;15.21;81.94
64298;BME280;50639;53.270;7.956;2023-05-10T02:15:08;100680.31;;;15.30;81.74
64298;BME280;50639;53.270;7.956;2023-05-10T02:17:36;100680.44;;;15.35;81.84
64298;BME280;50639;53.270;7.956;2023-05-10T02:20:06;100685.44;;;15.31;82.15
64298;BME280;50639;53.270;7.956;2023-05-10T02:22:32;100686.06;;;15.33;81.83
64298;BME280;50639;53.270;7.956;2023-05-10T02:25:01;100686.28;;;15.32;82.14
64298;BME280;50639;53.270;7.956;2023-05-10T02:27:29;100683.34;;;15.33;81.72
64298;BME280;50639;53.270;7.956;2023-05-10T02:29:56;100683.34;;;15.33;81.74
64298;BME280;50639;53.270;7.956;2023-05-10T02:32:24;100691.00;;;15.36;81.38
64298;BME280;50639;53.270;7.956;2023-05-10T02:34:50;100683.28;;;15.40;81.56
64298;BME280;50639;53.270;7.956;2023-05-10T02:37:20;100688.09;;;15.38;81.61
64298;BME280;50639;53.270;7.956;2023-05-10T02:39:47;100686.22;;;15.38;81.48
64298;BME280;50639;53.270;7.956;2023-05-10T02:42:17;100675.97;;;15.29;81.69
64298;BME280;50639;53.270;7.956;2023-05-10T02:44:48;100679.84;;;15.33;81.75
64298;BME280;50639;53.270;7.956;2023-05-10T02:47:14;100674.75;;;15.25;81.83
64298;BME280;50639;53.270;7.956;2023-05-10T02:49:40;100674.31;;;15.28;81.94
64298;BME280;50639;53.270;7.956;2023-05-10T02:52:06;100672.06;;;15.25;81.84
64298;BME280;50639;53.270;7.956;2023-05-10T02:54:39;100681.66;;;15.02;82.46
64298;BME280;50639;53.270;7.956;2023-05-10T02:57:07;100674.16;;;15.04;82.40
64298;BME280;50639;53.270;7.956;2023-05-10T02:59:35;100678.72;;;15.04;82.04
64298;BME280;50639;53.270;7.956;2023-05-10T03:02:01;100676.00;;;15.04;81.66
64298;BME280;50639;53.270;7.956;2023-05-10T03:04:27;100675.66;;;15.00;81.85
64298;BME280;50639;53.270;7.956;2023-05-10T03:06:55;100678.34;;;15.00;81.75
64298;BME280;50639;53.270;7.956;2023-05-10T03:09:20;100668.47;;;14.76;82.64
64298;BME280;50639;53.270;7.956;2023-05-10T03:20:19;100674.06;;;14.75;82.28
64298;BME280;50639;53.270;7.956;2023-05-10T03:22:51;100675.91;;;14.74;82.70
64298;BME280;50639;53.270;7.956;2023-05-10T03:25:20;100663.94;;;14.70;82.71
64298;BME280;50639;53.270;7.956;2023-05-10T03:27:47;100675.81;;;14.62;83.44
64298;BME280;50639;53.270;7.956;2023-05-10T03:30:13;100671.25;;;14.63;82.60
64298;BME280;50639;53.270;7.956;2023-05-10T03:32:40;100673.72;;;14.64;82.82
64298;BME280;50639;53.270;7.956;2023-05-10T03:35:10;100670.81;;;14.66;82.66
64298;BME280;50639;53.270;7.956;2023-05-10T03:37:37;100659.13;;;14.54;83.15
64298;BME280;50639;53.270;7.956;2023-05-10T03:40:03;100680.34;;;14.62;83.33
64298;BME280;50639;53.270;7.956;2023-05-10T03:42:31;100669.53;;;14.50;83.32
64298;BME280;50639;53.270;7.956;2023-05-10T03:44:57;100672.75;;;14.59;83.17
64298;BME280;50639;53.270;7.956;2023-05-10T03:47:23;100671.06;;;14.33;83.92
64298;BME280;50639;53.270;7.956;2023-05-10T03:49:48;100676.44;;;14.40;83.95
64298;BME280;50639;53.270;7.956;2023-05-10T03:52:14;100673.75;;;14.40;82.97
64298;BME280;50639;53.270;7.956;2023-05-10T03:54:39;100697.09;;;14.39;82.64
64298;BME280;50639;53.270;7.956;2023-05-10T03:57:06;100690.25;;;14.37;82.53
64298;BME280;50639;53.270;7.956;2023-05-10T03:59:31;100689.66;;;14.41;82.50
64298;BME280;50639;53.270;7.956;2023-05-10T04:01:57;100684.81;;;14.18;82.39
64298;BME280;50639;53.270;7.956;2023-05-10T04:04:22;100683.59;;;14.14;82.66
64298;BME280;50639;53.270;7.956;2023-05-10T04:06:49;100685.28;;;14.09;83.63
64298;BME280;50639;53.270;7.956;2023-05-10T04:09:15;100683.63;;;14.08;83.47
64298;BME280;50639;53.270;7.956;2023-05-10T04:11:41;100689.50;;;13.98;82.78
64298;BME280;50639;53.270;7.956;2023-05-10T04:14:07;100689.09;;;13.94;82.90
64298;BME280;50639;53.270;7.956;2023-05-10T04:16:33;100689.72;;;13.90;82.82
64298;BME280;50639;53.270;7.956;2023-05-10T04:18:58;100687.44;;;13.93;82.49
64298;BME280;50639;53.270;7.956;2023-05-10T04:21:26;100695.09;;;13.90;82.72
64298;BME280;50639;53.270;7.956;2023-05-10T04:23:51;100688.78;;;13.78;83.39
64298;BME280;50639;53.270;7.956;2023-05-10T04:26:18;100693.13;;;13.79;82.99
64298;BME280;50639;53.270;7.956;2023-05-10T04:28:43;100697.44;;;13.80;82.90
64298;BME280;50639;53.270;7.956;2023-05-10T04:31:09;100686.66;;;13.86;82.96
64298;BME280;50639;53.270;7.956;2023-05-10T04:33:37;100692.91;;;13.74;83.10
64298;BME280;50639;53.270;7.956;2023-05-10T04:36:04;100692.47;;;13.83;82.83
64298;BME280;50639;53.270;7.956;2023-05-10T04:38:30;100692.53;;;13.64;83.64
64298;BME280;50639;53.270;7.956;2023-05-10T04:41:09;100697.25;;;13.75;82.43
64298;BME280;50639;53.270;7.956;2023-05-10T04:43:35;100707.66;;;13.58;83.22
64298;BME280;50639;53.270;7.956;2023-05-10T04:46:01;100695.06;;;13.59;83.29
64298;BME280;50639;53.270;7.956;2023-05-10T04:48:27;100713.22;;;13.56;83.15
64298;BME280;50639;53.270;7.956;2023-05-10T04:50:52;100707.81;;;13.70;83.15
64298;BME280;50639;53.270;7.956;2023-05-10T04:53:17;100710.50;;;13.70;83.18
64298;BME280;50639;53.270;7.956;2023-05-10T04:55:43;100716.50;;;13.65;83.17
64298;BME280;50639;53.270;7.956;2023-05-10T04:58:08;100716.94;;;13.62;83.25
64298;BME280;50639;53.270;7.956;2023-05-10T05:00:34;100709.03;;;13.74;82.56
64298;BME280;50639;53.270;7.956;2023-05-10T05:03:00;100721.00;;;13.78;82.93
64298;BME280;50639;53.270;7.956;2023-05-10T05:05:26;100720.50;;;13.94;82.12
64298;BME280;50639;53.270;7.956;2023-05-10T05:07:51;100723.13;;;14.01;81.88
64298;BME280;50639;53.270;7.956;2023-05-10T05:10:17;100726.44;;;14.03;82.35
64298;BME280;50639;53.270;7.956;2023-05-10T05:12:42;100729.53;;;14.06;81.72
64298;BME280;50639;53.270;7.956;2023-05-10T05:15:08;100729.94;;;14.03;81.92
64298;BME280;50639;53.270;7.956;2023-05-10T05:17:35;100733.25;;;14.05;81.95
64298;BME280;50639;53.270;7.956;2023-05-10T05:20:00;100735.13;;;14.05;82.14
64298;BME280;50639;53.270;7.956;2023-05-10T05:22:26;100733.84;;;14.07;82.25
64298;BME280;50639;53.270;7.956;2023-05-10T05:24:56;100738.16;;;14.15;81.91
64298;BME280;50639;53.270;7.956;2023-05-10T05:27:24;100736.31;;;14.15;81.58
64298;BME280;50639;53.270;7.956;2023-05-10T05:29:57;100733.34;;;14.23;81.31
64298;BME280;50639;53.270;7.956;2023-05-10T05:32:24;100736.31;;;14.15;81.44
64298;BME280;50639;53.270;7.956;2023-05-10T05:34:50;100749.69;;;14.22;81.61
64298;BME280;50639;53.270;7.956;2023-05-10T05:37:18;100750.72;;;14.21;81.22
64298;BME280;50639;53.270;7.956;2023-05-10T05:39:45;100752.78;;;14.19;81.45
64298;BME280;50639;53.270;7.956;2023-05-10T05:42:11;100756.72;;;14.23;81.25
64298;BME280;50639;53.270;7.956;2023-05-10T05:44:37;100758.94;;;14.26;81.30
64298;BME280;50639;53.270;7.956;2023-05-10T05:47:03;100759.97;;;14.31;80.86
64298;BME280;50639;53.270;7.956;2023-05-10T05:49:29;100756.59;;;14.36;80.90
64298;BME280;50639;53.270;7.956;2023-05-10T05:52:02;100756.25;;;14.32;81.39
64298;BME280;50639;53.270;7.956;2023-05-10T05:54:28;100753.09;;;14.36;81.03
64298;BME280;50639;53.270;7.956;2023-05-10T05:56:55;100758.25;;;14.44;81.19
64298;BME280;50639;53.270;7.956;2023-05-10T05:59:22;100759.72;;;14.40;80.79
64298;BME280;50639;53.270;7.956;2023-05-10T06:01:47;100764.91;;;14.41;80.55
64298;BME280;50639;53.270;7.956;2023-05-10T06:04:13;100765.34;;;14.31;81.61
64298;BME280;50639;53.270;7.956;2023-05-10T06:06:38;100769.66;;;14.39;80.60
64298;BME280;50639;53.270;7.956;2023-05-10T06:09:04;100765.72;;;14.42;80.62
64298;BME280;50639;53.270;7.956;2023-05-10T06:11:29;100767.88;;;14.58;80.94
64298;BME280;50639;53.270;7.956;2023-05-10T06:13:58;100768.22;;;14.68;80.00
64298;BME280;50639;53.270;7.956;2023-05-10T06:16:24;100768.78;;;14.77;78.92
64298;BME280;50639;53.270;7.956;2023-05-10T06:18:50;100775.41;;;14.74;78.60
64298;BME280;50639;53.270;7.956;2023-05-10T06:21:17;100768.28;;;14.86;78.50
64298;BME280;50639;53.270;7.956;2023-05-10T06:23:43;100766.56;;;14.92;78.44
64298;BME280;50639;53.270;7.956;2023-05-10T06:26:09;100776.38;;;15.04;78.84
64298;BME280;50639;53.270;7.956;2023-05-10T06:28:35;100771.94;;;15.17;78.11
64298;BME280;50639;53.270;7.956;2023-05-10T06:31:03;100780.31;;;15.27;77.60
64298;BME280;50639;53.270;7.956;2023-05-10T06:33:30;100784.78;;;15.15;76.77
64298;BME280;50639;53.270;7.956;2023-05-10T06:35:56;100780.44;;;15.14;77.15
64298;BME280;50639;53.270;7.956;2023-05-10T06:38:22;100794.88;;;15.19;77.18
64298;BME280;50639;53.270;7.956;2023-05-10T06:40:48;100795.75;;;15.13;77.46
64298;BME280;50639;53.270;7.956;2023-05-10T06:43:14;100791.53;;;14.99;76.99
64298;BME280;50639;53.270;7.956;2023-05-10T06:45:39;100799.47;;;14.94;77.04
64298;BME280;50639;53.270;7.956;2023-05-10T06:48:07;100790.16;;;14.90;77.88
64298;BME280;50639;53.270;7.956;2023-05-10T06:50:33;100794.38;;;14.79;77.97
64298;BME280;50639;53.270;7.956;2023-05-10T06:53:00;100802.94;;;14.69;78.35
64298;BME280;50639;53.270;7.956;2023-05-10T06:55:27;100798.00;;;14.66;78.45
64298;BME280;50639;53.270;7.956;2023-05-10T06:57:53;100806.03;;;14.73;78.83
64298;BME280;50639;53.270;7.956;2023-05-10T07:00:19;100797.69;;;14.81;78.77
64298;BME280;50639;53.270;7.956;2023-05-10T07:02:46;100805.97;;;14.80;78.12
64298;BME280;50639;53.270;7.956;2023-05-10T07:05:12;100803.13;;;14.75;77.85
64298;BME280;50639;53.270;7.956;2023-05-10T07:07:37;100799.06;;;14.65;78.48
64298;BME280;50639;53.270;7.956;2023-05-10T07:10:06;100809.31;;;14.75;78.51
64298;BME280;50639;53.270;7.956;2023-05-10T07:12:32;100796.91;;;14.74;77.95
64298;BME280;50639;53.270;7.956;2023-05-10T07:14:58;100797.69;;;14.81;78.48
64298;BME280;50639;53.270;7.956;2023-05-10T07:17:24;100802.66;;;14.78;78.44
64298;BME280;50639;53.270;7.956;2023-05-10T07:19:49;100811.19;;;14.75;79.18
64298;BME280;50639;53.270;7.956;2023-05-10T07:22:17;100810.72;;;14.78;77.92
64298;BME280;50639;53.270;7.956;2023-05-10T07:24:43;100810.41;;;14.67;79.42
64298;BME280;50639;53.270;7.956;2023-05-10T07:27:09;100808.00;;;14.59;78.37
64298;BME280;50639;53.270;7.956;2023-05-10T07:29:35;100812.50;;;14.65;78.15
64298;BME280;50639;53.270;7.956;2023-05-10T07:32:04;100817.19;;;14.77;78.72
64298;BME280;50639;53.270;7.956;2023-05-10T07:34:30;100814.97;;;14.67;77.71
64298;BME280;50639;53.270;7.956;2023-05-10T07:36:58;100816.34;;;14.76;78.41
64298;BME280;50639;53.270;7.956;2023-05-10T07:39:24;100816.91;;;14.85;78.38
64298;BME280;50639;53.270;7.956;2023-05-10T07:41:49;100818.00;;;14.77;79.00
64298;BME280;50639;53.270;7.956;2023-05-10T07:44:15;100814.03;;;14.80;78.78
64298;BME280;50639;53.270;7.956;2023-05-10T07:46:43;100818.22;;;14.76;78.82
64298;BME280;50639;53.270;7.956;2023-05-10T07:49:12;100832.69;;;14.75;78.18
64298;BME280;50639;53.270;7.956;2023-05-10T07:51:37;100824.13;;;14.59;79.24
64298;BME280;50639;53.270;7.956;2023-05-10T07:54:03;100832.59;;;14.56;79.49
64298;BME280;50639;53.270;7.956;2023-05-10T07:56:30;100836.44;;;14.74;79.22
64298;BME280;50639;53.270;7.956;2023-05-10T07:59:00;100844.91;;;14.77;79.05
64298;BME280;50639;53.270;7.956;2023-05-10T08:01:26;100843.66;;;14.73;79.46
64298;BME280;50639;53.270;7.956;2023-05-10T08:03:54;100841.06;;;14.91;78.99
64298;BME280;50639;53.270;7.956;2023-05-10T08:06:20;100835.28;;;14.88;78.93
64298;BME280;50639;53.270;7.956;2023-05-10T08:08:47;100835.28;;;14.88;77.89
64298;BME280;50639;53.270;7.956;2023-05-10T08:11:17;100846.00;;;14.94;78.30
64298;BME280;50639;53.270;7.956;2023-05-10T08:13:44;100843.34;;;14.88;78.16
64298;BME280;50639;53.270;7.956;2023-05-10T08:16:10;100848.34;;;14.84;78.48
64298;BME280;50639;53.270;7.956;2023-05-10T08:18:36;100845.22;;;14.87;78.97
64298;BME280;50639;53.270;7.956;2023-05-10T08:21:03;100854.09;;;14.94;78.94
64298;BME280;50639;53.270;7.956;2023-05-10T08:23:28;100843.53;;;14.93;78.90
64298;BME280;50639;53.270;7.956;2023-05-10T08:25:54;100847.53;;;15.09;78.11
64298;BME280;50639;53.270;7.956;2023-05-10T08:28:19;100853.09;;;15.14;78.45
64298;BME280;50639;53.270;7.956;2023-05-10T08:30:45;100845.47;;;15.11;78.10
64298;BME280;50639;53.270;7.956;2023-05-10T08:33:10;100853.69;;;15.16;77.59
64298;BME280;50639;53.270;7.956;2023-05-10T08:35:36;100849.97;;;15.17;77.62
64298;BME280;50639;53.270;7.956;2023-05-10T08:38:01;100856.00;;;15.12;78.12
64298;BME280;50639;53.270;7.956;2023-05-10T08:40:27;100854.59;;;15.10;78.17
64298;BME280;50639;53.270;7.956;2023-05-10T08:42:58;100861.75;;;14.91;79.04
64298;BME280;50639;53.270;7.956;2023-05-10T08:45:32;100856.72;;;15.01;78.99
64298;BME280;50639;53.270;7.956;2023-05-10T08:47:59;100857.91;;;15.05;78.04
64298;BME280;50639;53.270;7.956;2023-05-10T08:50:26;100863.84;;;15.14;78.91
64298;BME280;50639;53.270;7.956;2023-05-10T08:52:52;100863.28;;;15.05;78.14
64298;BME280;50639;53.270;7.956;2023-05-10T08:55:20;100869.97;;;14.96;77.12
64298;BME280;50639;53.270;7.956;2023-05-10T08:57:48;100874.09;;;14.98;78.31
64298;BME280;50639;53.270;7.956;2023-05-10T09:00:14;100876.53;;;15.06;77.76
64298;BME280;50639;53.270;7.956;2023-05-10T09:02:41;100890.81;;;15.07;77.96
64298;BME280;50639;53.270;7.956;2023-05-10T09:05:07;100889.00;;;15.01;78.10
64298;BME280;50639;53.270;7.956;2023-05-10T09:07:33;100884.00;;;15.04;78.09
64298;BME280;50639;53.270;7.956;2023-05-10T09:09:59;100894.75;;;15.04;77.91
64298;BME280;50639;53.270;7.956;2023-05-10T09:12:24;100887.97;;;15.27;77.25
64298;BME280;50639;53.270;7.956;2023-05-10T09:14:50;100897.28;;;15.49;76.47
64298;BME280;50639;53.270;7.956;2023-05-10T09:17:17;100894.34;;;15.57;77.49
64298;BME280;50639;53.270;7.956;2023-05-10T09:19:44;100903.47;;;15.81;77.24
64298;BME280;50639;53.270;7.956;2023-05-10T09:22:10;100896.50;;;16.10;75.53
64298;BME280;50639;53.270;7.956;2023-05-10T09:24:37;100903.25;;;16.19;74.91
64298;BME280;50639;53.270;7.956;2023-05-10T09:27:07;100904.56;;;16.28;74.14
64298;BME280;50639;53.270;7.956;2023-05-10T09:29:41;100904.88;;;16.38;73.36
64298;BME280;50639;53.270;7.956;2023-05-10T09:32:08;100903.69;;;16.34;74.57
64298;BME280;50639;53.270;7.956;2023-05-10T09:34:33;100899.13;;;16.35;74.13
64298;BME280;50639;53.270;7.956;2023-05-10T09:37:02;100907.66;;;16.32;74.92
64298;BME280;50639;53.270;7.956;2023-05-10T09:42:02;100909.22;;;16.21;74.13
64298;BME280;50639;53.270;7.956;2023-05-10T09:44:29;100912.09;;;16.44;74.33
64298;BME280;50639;53.270;7.956;2023-05-10T09:46:54;100911.19;;;16.32;73.74
64298;BME280;50639;53.270;7.956;2023-05-10T09:49:23;100913.44;;;16.35;74.17
64298;BME280;50639;53.270;7.956;2023-05-10T09:52:02;100917.31;;;16.21;75.58
64298;BME280;50639;53.270;7.956;2023-05-10T09:54:28;100916.56;;;16.14;75.95
64298;BME280;50639;53.270;7.956;2023-05-10T09:56:54;100919.28;;;16.14;75.35
64298;BME280;50639;53.270;7.956;2023-05-10T09:59:19;100920.19;;;16.26;75.04
64298;BME280;50639;53.270;7.956;2023-05-10T10:01:52;100921.06;;;16.38;74.31
64298;BME280;50639;53.270;7.956;2023-05-10T10:04:19;100929.53;;;16.05;74.43
64298;BME280;50639;53.270;7.956;2023-05-10T10:06:46;100932.53;;;16.34;74.36
64298;BME280;50639;53.270;7.956;2023-05-10T10:09:11;100932.22;;;16.05;74.36
64298;BME280;50639;53.270;7.956;2023-05-10T10:11:38;100939.63;;;15.92;75.42
64298;BME280;50639;53.270;7.956;2023-05-10T10:14:05;100938.34;;;15.94;76.43
64298;BME280;50639;53.270;7.956;2023-05-10T10:16:31;100944.84;;;15.87;76.04
64298;BME280;50639;53.270;7.956;2023-05-10T10:18:57;100940.28;;;15.87;75.70
64298;BME280;50639;53.270;7.956;2023-05-10T10:21:23;100946.78;;;15.79;76.92
64298;BME280;50639;53.270;7.956;2023-05-10T10:23:49;100938.22;;;15.64;76.12
64298;BME280;50639;53.270;7.956;2023-05-10T10:26:16;100959.03;;;15.75;77.20
64298;BME280;50639;53.270;7.956;2023-05-10T10:28:57;100949.31;;;15.93;76.95
64298;BME280;50639;53.270;7.956;2023-05-10T10:31:39;100958.31;;;15.87;76.61
64298;BME280;50639;53.270;7.956;2023-05-10T10:34:07;100959.03;;;15.75;76.50
64298;BME280;50639;53.270;7.956;2023-05-10T10:36:45;100960.81;;;15.63;76.66
64298;BME280;50639;53.270;7.956;2023-05-10T10:39:11;100961.75;;;15.44;78.54
64298;BME280;50639;53.270;7.956;2023-05-10T10:41:40;100960.72;;;15.45;77.82
64298;BME280;50639;53.270;7.956;2023-05-10T10:49:33;100967.75;;;15.46;77.69
64298;BME280;50639;53.270;7.956;2023-05-10T10:57:27;100976.25;;;15.43;77.86
64298;BME280;50639;53.270;7.956;2023-05-10T11:03:09;100985.69;;;15.84;76.76
64298;BME280;50639;53.270;7.956;2023-05-10T11:05:43;100986.19;;;15.74;76.28
64298;BME280;50639;53.270;7.956;2023-05-10T11:08:11;100991.00;;;16.15;74.38
64298;BME280;50639;53.270;7.956;2023-05-10T11:10:37;100989.59;;;16.49;74.09
64298;BME280;50639;53.270;7.956;2023-05-10T11:13:05;100990.97;;;15.97;75.50
64298;BME280;50639;53.270;7.956;2023-05-10T11:15:32;100990.09;;;15.78;76.22
64298;BME280;50639;53.270;7.956;2023-05-10T11:17:59;100996.66;;;15.57;76.81
64298;BME280;50639;53.270;7.956;2023-05-10T11:20:28;100992.22;;;15.69;76.53
64298;BME280;50639;53.270;7.956;2023-05-10T11:23:11;101001.63;;;15.60;77.06
64298;BME280;50639;53.270;7.956;2023-05-10T11:25:43;100999.81;;;15.54;76.96
64298;BME280;50639;53.270;7.956;2023-05-10T11:28:09;101012.19;;;15.62;76.17
64298;BME280;50639;53.270;7.956;2023-05-10T11:30:37;101022.44;;;15.40;77.30
64298;BME280;50639;53.270;7.956;2023-05-10T11:33:03;101013.47;;;15.21;77.76
64298;BME280;50639;53.270;7.956;2023-05-10T11:35:28;101017.66;;;15.11;78.91
64298;BME280;50639;53.270;7.956;2023-05-10T11:37:54;101024.81;;;15.23;78.01
64298;BME280;50639;53.270;7.956;2023-05-10T11:40:22;101018.94;;;15.01;78.06
64298;BME280;50639;53.270;7.956;2023-05-10T11:42:50;101030.25;;;15.17;77.54
64298;BME280;50639;53.270;7.956;2023-05-10T11:45:16;101030.53;;;15.02;77.42
64298;BME280;50639;53.270;7.956;2023-05-10T11:47:41;101040.59;;;14.75;78.38
64298;BME280;50639;53.270;7.956;2023-05-10T11:50:10;101039.53;;;14.69;78.52
64298;BME280;50639;53.270;7.956;2023-05-10T11:52:36;101042.13;;;14.31;79.26
64298;BME280;50639;53.270;7.956;2023-05-10T11:55:05;101048.03;;;14.73;78.69
64298;BME280;50639;53.270;7.956;2023-05-10T11:57:30;101045.03;;;15.01;78.38
64298;BME280;50639;53.270;7.956;2023-05-10T11:59:57;101045.19;;;15.13;77.95
64298;BME280;50639;53.270;7.956;2023-05-10T12:02:23;101058.56;;;15.26;76.83
64298;BME280;50639;53.270;7.956;2023-05-10T12:04:49;101055.91;;;15.19;76.75
64298;BME280;50639;53.270;7.956;2023-05-10T12:07:16;101069.00;;;15.09;77.37
64298;BME280;50639;53.270;7.956;2023-05-10T12:09:55;101067.00;;;14.91;78.15
64298;BME280;50639;53.270;7.956;2023-05-10T12:12:27;101078.47;;;14.67;78.52
64298;BME280;50639;53.270;7.956;2023-05-10T12:14:52;101075.91;;;14.92;78.66
64298;BME280;50639;53.270;7.956;2023-05-10T12:17:18;101077.09;;;15.02;78.01
64298;BME280;50639;53.270;7.956;2023-05-10T12:19:43;101078.84;;;15.22;78.37
64298;BME280;50639;53.270;7.956;2023-05-10T12:22:09;101080.03;;;15.39;76.74
64298;BME280;50639;53.270;7.956;2023-05-10T12:24:37;101082.94;;;15.31;77.78
64298;BME280;50639;53.270;7.956;2023-05-10T12:27:07;101089.81;;;15.27;77.10
64298;BME280;50639;53.270;7.956;2023-05-10T12:29:33;101086.75;;;15.17;77.92
64298;BME280;50639;53.270;7.956;2023-05-10T12:31:59;101084.59;;;15.38;76.50
64298;BME280;50639;53.270;7.956;2023-05-10T12:34:35;101092.72;;;15.70;77.81
64298;BME280;50639;53.270;7.956;2023-05-10T12:37:02;101089.97;;;15.76;76.44
64298;BME280;50639;53.270;7.956;2023-05-10T12:39:41;101095.47;;;15.88;77.44
64298;BME280;50639;53.270;7.956;2023-05-10T12:42:09;101097.03;;;16.02;75.38
64298;BME280;50639;53.270;7.956;2023-05-10T12:44:34;101096.19;;;16.51;nan
64298;BME280;50639;53.270;7.956;2023-05-10T12:46:59;101081.75;;;16.64;72.75
64298;BME280;50639;53.270;7.956;2023-05-10T12:49:25;101101.28;;;16.60;71.93
64298;BME280;50639;53.270;7.956;2023-05-10T12:51:50;101096.00;;;16.71;71.07
64298;BME280;50639;53.270;7.956;2023-05-10T12:54:16;101103.94;;;16.66;70.58
64298;BME280;50639;53.270;7.956;2023-05-10T12:56:42;101103.22;;;16.96;70.53
64298;BME280;50639;53.270;7.956;2023-05-10T12:59:08;101113.53;;;16.99;69.96
64298;BME280;50639;53.270;7.956;2023-05-10T13:01:33;101109.50;;;16.46;72.76
64298;BME280;50639;53.270;7.956;2023-05-10T13:04:02;101112.25;;;16.65;71.07
64298;BME280;50639;53.270;7.956;2023-05-10T13:06:28;101111.44;;;16.14;71.81
64298;BME280;50639;53.270;7.956;2023-05-10T13:08:53;101109.97;;;16.43;72.29
64298;BME280;50639;53.270;7.956;2023-05-10T13:11:19;101117.28;;;16.61;72.54
64298;BME280;50639;53.270;7.956;2023-05-10T13:13:46;101110.31;;;16.72;71.99
64298;BME280;50639;53.270;7.956;2023-05-10T13:16:12;101119.00;;;16.74;72.89
64298;BME280;50639;53.270;7.956;2023-05-10T13:18:37;101118.06;;;16.43;72.61
64298;BME280;50639;53.270;7.956;2023-05-10T13:21:03;101119.97;;;16.36;72.55
64298;BME280;50639;53.270;7.956;2023-05-10T13:23:30;101119.97;;;16.36;72.46
64298;BME280;50639;53.270;7.956;2023-05-10T13:25:56;101127.50;;;16.03;73.46